BIARBGBW

Guest
Details From BIAR - Akureyri
To BGBW - Narsarsuaq
Flight Number -
Tags decoded
Created
Modified
Stats Distance 813 nm / 1,506 km
Max Altitude 0 ft / 0 m
Waypoints 8
Social Downloads 3
Likes 0
Share VATSIM

Download

Looking for another format? Having issues loading an existing format? Contact us
Advertisement - Login to hide

Notes

Requested: BIAR PERUR Y149 TERTU G1 KEF 63N030W 62N035W NA BGBW Unmatched points: PERUR Y149

Route

BIAR TERTU G1 KEF 63N030W 62N035W NA BGBW

ID Type Via Altitude Latitude Longitude Leg Dist Tot Dist Heading (true) Name
O BIAR APT - 0 ft / 0 m 65.65657˚ -18.07197˚ - 0 nm - Akureyri
TERTU FIX - 0 ft / 0 m 64.43417˚ -21.72861˚ 118 nm 118 nm 233° / 230° -
SA NDB G1 (AWY-HI) 0 ft / 0 m 64.30544˚ -21.97128˚ 9 nm 128 nm 219° / 219° SKAGI NDB
KEF VOR G1 (AWY-LO) 0 ft / 0 m 63.98681˚ -22.61450˚ 25 nm 153 nm 222° / 221° KEFLAVIK VORTAC
63N030W LATLON - 0 ft / 0 m 63.00000˚ -30.00000˚ 206 nm 360 nm 257° / 250° -
62N035W LATLON - 0 ft / 0 m 62.00000˚ -35.00000˚ 151 nm 511 nm 249° / 244° -
NA NDB - 0 ft / 0 m 61.17074˚ -45.41295˚ 301 nm 812 nm 265° / 256° NARSARSUAQ NDB
O BGBW APT - 0 ft / 0 m 61.16052˚ -45.42598˚ 0 nm 813 nm 212° / 212° Narsarsuaq

Altitude Profile

Advertisement - Login to hide

Weather


0- 5 10 15 20 25 30 35+ Temperature / ° C

Clouds and Precipitation
Forecast for 2018-05-24 18:00 UTC. Updated an hour ago

Ground ~20,000 ft ~40,000 ft Winds

BIAR

Details ICAO BIAR (AEY)
Name Akureyri
Region Iceland
Timezone Unknown (UTC+0.0)
Stats Elevation 5 ft / 2 m (AMSL)
Location 65.656574° -18.071975°
Runways 1
Magnetic Variation 12.176° W

METAR

BIAR 241800Z 34007KT 9999 -DZ FEW031 BKN038 OVC065 06/04 Q1011

Decode

TAF

TAF TAF BIAR 241353Z 2415/2515 35006KT 9999 -RA BKN020 OVC030 TX08/2512Z TN04/2503Z TEMPO 2415/2418 8000 RADZ BR BKN013 OVC020 BECMG 2416/2418 29012KT -SHRA BECMG 2419/2421 19010KT SCT025 BKN050

Decode

Departure Runways

ID Width Length Bearing (true) Bearing (mag) Surface Threshold Offset Overrun Length
01 148 ft / 45 m 7,855 ft / 2,394 m 355.54° 7.72° Asphalt 0 ft / 0 m 0 ft / 0 m
19 148 ft / 45 m 7,855 ft / 2,394 m 175.54° 187.72° Asphalt 0 ft / 0 m 0 ft / 0 m

BGBW

Details ICAO BGBW (UAK)
Name Narsarsuaq
Region Greenland
Timezone America/Godthab (UTC-2.0)
Stats Elevation 112 ft / 34 m (AMSL)
Location 61.160516° -45.425976°
Runways 1
Magnetic Variation 22.773° W

METAR

BGBW 241750Z 24008KT 9999 SCT040 BKN055 04/M06 Q1010

Decode

TAF

Not found

Destination Runways

ID Width Length Bearing (true) Bearing (mag) Surface Threshold Offset Overrun Length
07 148 ft / 45 m 5,921 ft / 1,805 m 40.57° 63.34° Concrete 0 ft / 0 m 0 ft / 0 m
25 148 ft / 45 m 5,921 ft / 1,805 m 220.58° 243.35° Concrete 0 ft / 0 m 279 ft / 85 m

Popular Alternatives